Aviation Digital Data Service (ADDS)

Output produced by METARs form (1857 UTC 18 April 2019)
found at http://www.aviationweather.gov/metar/data/
 
Forecast for: DNIB (IBADAN , NG)
Text: TAF DNIB 181550Z 1818/1924 VRB02KT 8000 FEW011
Forecast period: 1800 UTC 18 April 2019 to 0000 UTC 20 April 2019
Forecast type: FROM: standard forecast or significant change
Winds: variable direction winds at 2 MPH (2 knots; 1.0 m/s)
Visibility: 5 miles (8 km)
Ceiling: at least 12,000 feet AGL
Clouds: few clouds at 1100 feet AGL
Weather: no significant weather forecast for this period
Text: TEMPO 1820/1824 TS FEW011 FEW020CB
Forecast period: 2000 UTC 18 April 2019 to 0000 UTC 19 April 2019
Forecast type: TEMPORARY: The following changes expected for less than half the time period
Visibility: missing
Ceiling: at least 12,000 feet AGL
Clouds: few clouds at 1100 feet AGL
few clouds at 2000 feet AGL
Weather: TS  (thunderstorm)
Text: PROB30 1821/1901 5000 -TSRA BKN009 FEW019CB
Forecast period: 2100 UTC 18 April 2019 to 0100 UTC 19 April 2019
Forecast type: PROBABLE: 30 percent likelihood of the following during this time
Visibility: 3 miles (5 km)
Ceiling: 900 feet AGL
Clouds: broken clouds at 900 feet AGL
few clouds at 1900 feet AGL
Weather: -TSRA  (light rain associated with thunderstorm(s))